createdAt,value
2019-03-16T00:02:34.696Z,8.10
2019-03-16T00:07:32.541Z,8.20
2019-03-16T00:12:07.779Z,8.40
2019-03-16T00:16:53.788Z,8.50
2019-03-16T00:21:39.478Z,8.90
2019-03-16T00:26:25.174Z,8.60
2019-03-16T00:31:10.908Z,8.40
2019-03-16T00:35:56.613Z,8.30
2019-03-16T00:40:42.286Z,8.40
2019-03-16T00:45:28.343Z,8.60
2019-03-16T00:50:14.663Z,8.50
2019-03-16T00:55:00.294Z,8.30
2019-03-16T00:59:46.209Z,8.10
2019-03-16T01:04:31.855Z,8.00
2019-03-16T01:09:17.611Z,8.40
2019-03-16T01:14:03.411Z,8.60
2019-03-16T01:18:49.273Z,8.60
2019-03-16T01:23:35.008Z,9.10
2019-03-16T01:28:20.735Z,8.70
2019-03-16T01:33:06.426Z,8.50
2019-03-16T01:37:52.201Z,8.20
2019-03-16T01:42:37.983Z,8.10
2019-03-16T01:47:23.694Z,7.90
2019-03-16T01:52:09.418Z,8.10
2019-03-16T01:56:55.092Z,8.10
2019-03-16T02:01:40.804Z,8.00
2019-03-16T02:06:26.499Z,7.70
2019-03-16T02:11:12.210Z,8.10
2019-03-16T02:16:10.351Z,8.10
2019-03-16T02:20:45.333Z,8.20
2019-03-16T02:25:31.074Z,8.20
2019-03-16T02:30:16.802Z,8.00
2019-03-16T02:35:02.484Z,8.00
2019-03-16T02:39:48.216Z,8.00
2019-03-16T02:44:33.951Z,8.00
2019-03-16T02:49:19.671Z,8.10
2019-03-16T02:54:05.386Z,8.20
2019-03-16T02:58:51.121Z,8.10
2019-03-16T03:03:36.803Z,8.10
2019-03-16T03:08:22.519Z,8.10
2019-03-16T03:13:08.187Z,8.10
2019-03-16T03:17:53.933Z,8.10
2019-03-16T03:22:39.656Z,7.90
2019-03-16T03:27:25.401Z,7.80
2019-03-16T03:32:11.243Z,7.80
2019-03-16T03:36:57.209Z,7.70
2019-03-16T03:41:42.907Z,7.60
2019-03-16T03:46:32.142Z,7.50
2019-03-16T03:51:15.901Z,7.50
2019-03-16T03:56:01.699Z,7.60
2019-03-16T04:00:47.617Z,7.60
2019-03-16T04:05:33.437Z,7.60
2019-03-16T04:10:19.063Z,7.50
2019-03-16T04:15:05.170Z,7.50
2019-03-16T04:19:50.892Z,7.70
2019-03-16T04:24:36.646Z,7.80
2019-03-16T04:29:22.535Z,8.00
2019-03-16T04:34:08.322Z,8.20
2019-03-16T04:38:54.104Z,8.40
2019-03-16T04:43:39.784Z,8.50
2019-03-16T04:48:25.527Z,8.40
2019-03-16T04:53:11.273Z,8.40
2019-03-16T04:57:57.062Z,8.30
2019-03-16T05:02:42.839Z,8.20
2019-03-16T05:07:28.541Z,8.10
2019-03-16T05:12:14.265Z,8.00
2019-03-16T05:16:59.971Z,7.90
2019-03-16T05:21:45.762Z,7.80
2019-03-16T05:26:31.501Z,7.70
2019-03-16T05:31:17.323Z,7.70
2019-03-16T05:36:03.018Z,7.70
2019-03-16T05:40:48.755Z,7.60
2019-03-16T05:45:34.418Z,7.60
2019-03-16T05:50:20.214Z,7.70
2019-03-16T05:55:06.229Z,7.70
2019-03-16T05:59:51.932Z,7.60
2019-03-16T06:04:37.658Z,7.50
2019-03-16T06:09:23.365Z,7.70
2019-03-16T06:14:09.226Z,7.60
2019-03-16T06:18:54.969Z,7.50
2019-03-16T06:23:40.673Z,7.50
2019-03-16T06:28:26.502Z,7.50
2019-03-16T06:33:12.408Z,7.50
2019-03-16T06:37:58.184Z,7.50
2019-03-16T06:42:44.220Z,7.50
2019-03-16T06:47:29.993Z,7.50
2019-03-16T06:52:15.856Z,7.50
2019-03-16T06:57:01.951Z,7.70
2019-03-16T07:01:47.630Z,7.40
2019-03-16T07:06:33.499Z,7.50
2019-03-16T07:11:19.231Z,7.60
2019-03-16T07:16:05.149Z,7.60
2019-03-16T07:20:50.924Z,7.60
2019-03-16T07:25:36.665Z,7.50
2019-03-16T07:30:22.441Z,7.70
2019-03-16T07:35:08.406Z,7.80
2019-03-16T07:39:54.439Z,7.90
2019-03-16T07:44:40.114Z,7.90
2019-03-16T07:49:27.482Z,7.90
2019-03-16T07:54:13.238Z,8.00
2019-03-16T07:58:59.035Z,8.20
2019-03-16T08:03:44.974Z,8.50
2019-03-16T08:08:30.884Z,8.90
2019-03-16T08:13:16.708Z,9.50
2019-03-16T08:18:02.608Z,10.10
2019-03-16T08:22:48.333Z,10.50
2019-03-16T08:27:34.220Z,10.50
2019-03-16T08:32:20.197Z,10.40
2019-03-16T08:37:06.270Z,10.40
2019-03-16T08:41:52.007Z,11.10
2019-03-16T08:46:37.835Z,11.30
2019-03-16T08:51:23.572Z,11.30
2019-03-16T08:56:09.333Z,11.30
2019-03-16T09:00:55.284Z,11.30
2019-03-16T09:05:41.257Z,11.80
2019-03-16T09:10:27.113Z,11.90
2019-03-16T09:15:13.045Z,11.90
2019-03-16T09:19:58.874Z,12.20
2019-03-16T09:24:44.746Z,12.20
2019-03-16T09:29:30.573Z,12.20
2019-03-16T09:34:16.671Z,12.40
2019-03-16T09:39:04.749Z,12.70
2019-03-16T09:43:50.746Z,12.90
2019-03-16T09:48:36.648Z,13.20
2019-03-16T09:53:23.245Z,13.90
2019-03-16T09:58:09.809Z,13.90
2019-03-16T10:02:56.648Z,13.50
2019-03-16T10:07:42.729Z,13.80
2019-03-16T10:12:28.701Z,14.10
2019-03-16T10:17:15.131Z,14.50
2019-03-16T10:22:01.038Z,14.20
2019-03-16T10:26:47.108Z,14.50
2019-03-16T10:31:33.066Z,15.60
2019-03-16T10:36:18.988Z,15.70
2019-03-16T10:41:04.966Z,15.50
2019-03-16T10:45:50.872Z,16.10
2019-03-16T10:50:36.667Z,15.90
2019-03-16T10:55:22.472Z,16.30
2019-03-16T11:00:09.027Z,16.10
2019-03-16T11:04:54.853Z,16.10
2019-03-16T11:09:40.776Z,16.90
2019-03-16T11:14:26.602Z,17.70
2019-03-16T11:19:12.690Z,17.40
2019-03-16T11:23:58.606Z,17.10
2019-03-16T11:28:44.839Z,17.70
2019-03-16T11:33:30.848Z,17.10
2019-03-16T11:38:16.671Z,17.80
2019-03-16T11:43:02.447Z,18.70
2019-03-16T11:47:48.370Z,18.10
2019-03-16T11:52:34.300Z,18.50
2019-03-16T11:57:20.157Z,18.60
2019-03-16T12:02:06.049Z,20.20
2019-03-16T12:06:51.905Z,19.90
2019-03-16T12:11:37.739Z,20.90
2019-03-16T12:16:23.698Z,20.30
2019-03-16T12:21:09.846Z,22.40
2019-03-16T12:25:56.055Z,22.10
2019-03-16T12:30:41.780Z,20.50
2019-03-16T12:35:27.540Z,20.60
2019-03-16T12:40:13.659Z,18.90
2019-03-16T12:44:59.330Z,20.30
2019-03-16T12:49:45.142Z,20.80
2019-03-16T12:54:31.236Z,21.60
2019-03-16T12:59:16.960Z,22.60
2019-03-16T13:04:02.835Z,21.30
2019-03-16T13:08:48.653Z,21.70
2019-03-16T13:13:34.408Z,21.00
2019-03-16T13:18:20.222Z,22.50
2019-03-16T13:23:06.127Z,22.60
2019-03-16T13:27:51.907Z,23.80
2019-03-16T13:32:37.722Z,23.00
2019-03-16T13:37:23.451Z,23.50
2019-03-16T13:42:09.222Z,22.70
2019-03-16T13:46:54.912Z,23.50
2019-03-16T13:51:41.226Z,22.20
2019-03-16T13:56:26.945Z,22.10
2019-03-16T14:01:13.123Z,23.20
2019-03-16T14:06:00.130Z,22.80
2019-03-16T14:10:46.049Z,22.90
2019-03-16T14:15:32.134Z,23.00
2019-03-16T14:20:18.033Z,24.40
2019-03-16T14:25:03.737Z,23.80
2019-03-16T14:29:49.502Z,23.80
2019-03-16T14:34:35.420Z,23.30
2019-03-16T14:39:21.205Z,23.30
2019-03-16T14:44:07.102Z,22.40
2019-03-16T14:48:53.011Z,23.10
2019-03-16T14:53:38.781Z,25.50
2019-03-16T14:58:24.693Z,23.00
2019-03-16T15:03:10.484Z,24.40
2019-03-16T15:07:56.562Z,24.30
2019-03-16T15:12:42.410Z,23.60
2019-03-16T15:17:28.419Z,24.30
2019-03-16T15:22:14.087Z,24.80
2019-03-16T15:27:00.074Z,24.20
2019-03-16T15:31:46.004Z,23.00
2019-03-16T15:36:31.971Z,22.90
2019-03-16T15:41:17.796Z,22.00
2019-03-16T15:46:06.625Z,22.90
2019-03-16T15:50:52.486Z,22.30
2019-03-16T15:55:38.831Z,22.90
2019-03-16T16:00:24.903Z,23.70
2019-03-16T16:05:10.993Z,21.80
2019-03-16T16:09:56.992Z,22.20
2019-03-16T16:14:43.386Z,21.70
2019-03-16T16:19:29.317Z,21.00
2019-03-16T16:24:15.331Z,20.80
2019-03-16T16:29:01.158Z,20.90
2019-03-16T16:33:46.949Z,20.80
2019-03-16T16:38:32.765Z,20.80
2019-03-16T16:43:18.570Z,19.90
2019-03-16T16:48:04.646Z,18.80
2019-03-16T16:52:50.735Z,17.90
2019-03-16T16:57:36.599Z,17.50
2019-03-16T17:02:24.921Z,17.20
2019-03-16T17:07:10.791Z,16.90
2019-03-16T17:11:56.854Z,16.70
2019-03-16T17:16:42.712Z,16.50
2019-03-16T17:21:28.599Z,16.20
2019-03-16T17:26:14.640Z,16.00
2019-03-16T17:31:01.701Z,15.80
2019-03-16T17:35:47.775Z,15.60
2019-03-16T17:40:34.050Z,15.50
2019-03-16T17:45:20.008Z,15.40
2019-03-16T17:50:06.263Z,15.00
2019-03-16T17:54:51.984Z,14.80
2019-03-16T17:59:37.777Z,14.60
2019-03-16T18:04:23.628Z,14.50
2019-03-16T18:09:09.577Z,14.30
2019-03-16T18:13:55.431Z,14.40
2019-03-16T18:18:41.141Z,14.00
2019-03-16T18:23:26.861Z,13.80
2019-03-16T18:28:12.679Z,13.80
2019-03-16T18:32:58.397Z,13.80
2019-03-16T18:37:44.262Z,14.50
2019-03-16T18:42:30.218Z,15.60
2019-03-16T18:47:15.954Z,14.90
2019-03-16T18:52:01.824Z,14.10
2019-03-16T18:56:51.213Z,13.50
2019-03-16T19:01:37.002Z,13.30
2019-03-16T19:06:22.729Z,13.10
2019-03-16T19:11:08.515Z,13.20
2019-03-16T19:15:54.271Z,13.20
2019-03-16T19:20:40.035Z,13.10
2019-03-16T19:25:26.020Z,12.90
2019-03-16T19:30:13.733Z,12.90
2019-03-16T19:34:59.407Z,12.50
2019-03-16T19:39:45.283Z,12.20
2019-03-16T19:44:31.037Z,12.40
2019-03-16T19:49:16.831Z,12.40
2019-03-16T19:54:02.711Z,12.70
2019-03-16T19:59:00.256Z,12.80
2019-03-16T20:03:36.460Z,12.80
2019-03-16T20:08:22.291Z,12.70
2019-03-16T20:13:08.109Z,12.50
2019-03-16T20:17:53.997Z,12.60
2019-03-16T20:22:39.768Z,12.50
2019-03-16T20:27:28.121Z,12.40
2019-03-16T20:32:13.979Z,12.50
2019-03-16T20:36:59.896Z,12.30
2019-03-16T20:41:45.740Z,12.20
2019-03-16T20:46:31.697Z,12.40
2019-03-16T20:51:17.810Z,12.40
2019-03-16T20:56:03.674Z,12.10
2019-03-16T21:00:49.506Z,11.80
2019-03-16T21:05:35.540Z,11.60
2019-03-16T21:10:21.586Z,11.60
2019-03-16T21:15:08.595Z,11.50
2019-03-16T21:19:54.545Z,12.00
2019-03-16T21:24:40.252Z,11.80
2019-03-16T21:29:26.451Z,11.60
2019-03-16T21:34:12.795Z,11.90
2019-03-16T21:38:58.694Z,12.20
2019-03-16T21:43:44.581Z,12.00
2019-03-16T21:48:30.463Z,11.70
2019-03-16T21:53:16.499Z,11.50
2019-03-16T21:58:02.329Z,11.40
2019-03-16T22:02:48.321Z,11.10
2019-03-16T22:07:34.151Z,11.30
2019-03-16T22:12:20.075Z,11.40
2019-03-16T22:17:05.941Z,11.30
2019-03-16T22:21:52.061Z,11.30
2019-03-16T22:26:37.859Z,11.60
2019-03-16T22:31:23.680Z,11.40
2019-03-16T22:36:09.491Z,11.30
2019-03-16T22:40:58.220Z,11.10
2019-03-16T22:45:44.172Z,11.30
2019-03-16T22:50:30.067Z,11.30
2019-03-16T22:55:16.545Z,10.80
2019-03-16T23:00:02.598Z,10.90
2019-03-16T23:04:49.862Z,10.50
2019-03-16T23:09:35.887Z,9.60
2019-03-16T23:14:21.800Z,10.30
2019-03-16T23:19:07.822Z,10.30
2019-03-16T23:23:55.546Z,10.90
2019-03-16T23:28:41.365Z,10.30
2019-03-16T23:33:27.303Z,9.20
2019-03-16T23:38:13.306Z,8.50
2019-03-16T23:42:59.533Z,7.80
2019-03-16T23:47:45.701Z,7.30
2019-03-16T23:52:31.723Z,7.10
2019-03-16T23:57:17.431Z,6.70
